Time;durP1;ratioP1;P1;durP2;ratioP2;P2;SDS_P1;SDS_P2;PMS_P1;PMS_P2;Temp;Humidity;BMP_temperature;BMP_pressure;BME280_temperature;BME280_humidity;BME280_pressure;Samples;Min_cycle;Max_cycle;Signal;HPM_P1;HPM_P2
2022/09/26 00:01:34;;;;;;;10.93;6.55;;;;;;;10.13;100.00;99031.22;1759479;80;20903;-74
2022/09/26 00:04:08;;;;;;;9.35;6.90;;;;;;;10.11;100.00;99029.37;1751179;80;21040;-74
2022/09/26 00:06:40;;;;;;;13.55;8.78;;;;;;;10.11;100.00;99030.73;1749086;80;21243;-74
2022/09/26 00:09:07;;;;;;;18.55;12.47;;;;;;;10.12;100.00;99032.35;1759778;80;20950;-72
2022/09/26 00:11:40;;;;;;;19.95;12.05;;;;;;;10.11;100.00;99028.00;1749151;80;21052;-72
2022/09/26 00:14:16;;;;;;;19.60;11.63;;;;;;;10.11;100.00;99028.80;1746879;80;21695;-73
2022/09/26 00:16:45;;;;;;;15.32;10.95;;;;;;;10.12;100.00;99030.98;1755821;80;20992;-73
2022/09/26 00:19:16;;;;;;;17.42;10.70;;;;;;;10.14;100.00;99030.89;1756897;79;21800;-74
2022/09/26 00:21:42;;;;;;;14.00;10.13;;;;;;;10.13;100.00;99022.42;1756004;80;21486;-73
2022/09/26 00:24:17;;;;;;;16.05;9.73;;;;;;;10.14;100.00;99023.23;1743716;80;20955;-74
2022/09/26 00:26:42;;;;;;;12.20;8.70;;;;;;;10.14;100.00;99028.72;1743605;80;21621;-73
2022/09/26 00:29:18;;;;;;;13.32;8.88;;;;;;;10.11;100.00;99020.58;1746953;80;21014;-73
2022/09/26 00:31:51;;;;;;;13.58;9.35;;;;;;;10.10;100.00;99023.08;1722074;80;21451;-72
2022/09/26 00:34:26;;;;;;;11.50;8.80;;;;;;;10.10;100.00;99023.64;1727855;81;21074;-72
2022/09/26 00:36:59;;;;;;;17.70;9.88;;;;;;;10.11;100.00;99026.63;1747619;80;21061;-73
2022/09/26 00:39:29;;;;;;;17.10;10.32;;;;;;;10.12;100.00;99028.23;1749414;80;21005;-72
2022/09/26 00:41:59;;;;;;;13.35;9.20;;;;;;;10.09;100.00;99026.95;1755728;80;20864;-73
2022/09/26 00:44:53;;;;;;;12.47;9.50;;;;;;;10.05;100.00;99026.55;1747435;80;21816;-72
2022/09/26 00:47:43;;;;;;;13.62;9.55;;;;;;;9.99;100.00;99030.59;1731364;80;21052;-73
2022/09/26 00:50:25;;;;;;;14.98;9.38;;;;;;;9.93;100.00;99036.23;1758679;80;21791;-73
2022/09/26 00:53:11;;;;;;;18.30;10.68;;;;;;;9.87;100.00;99029.30;1756304;80;21687;-73
2022/09/26 00:55:51;;;;;;;13.88;9.70;;;;;;;9.83;100.00;99028.34;1749541;80;20979;-74
2022/09/26 00:58:38;;;;;;;14.15;9.15;;;;;;;9.78;100.00;99025.79;1760641;80;21121;-73
2022/09/26 01:01:10;;;;;;;14.63;9.40;;;;;;;9.73;100.00;99020.47;1760782;80;21088;-73
2022/09/26 01:03:45;;;;;;;17.80;8.75;;;;;;;9.71;100.00;99015.06;1749966;80;20975;-73
2022/09/26 01:06:20;;;;;;;15.13;8.23;;;;;;;9.70;100.00;99015.63;1742045;80;20994;-73
2022/09/26 01:08:56;;;;;;;13.65;9.20;;;;;;;9.70;100.00;99017.00;1757945;80;21168;-72
2022/09/26 01:11:31;;;;;;;17.00;11.10;;;;;;;9.70;100.00;99012.08;1758896;80;21215;-73
2022/09/26 01:13:59;;;;;;;14.70;10.30;;;;;;;9.69;100.00;99010.47;1752868;80;21062;-73
2022/09/26 01:16:33;;;;;;;14.98;10.43;;;;;;;9.68;100.00;99012.41;1750326;80;21014;-73
2022/09/26 01:19:20;;;;;;;19.48;10.43;;;;;;;9.67;100.00;99013.53;1747465;80;21757;-74
2022/09/26 01:22:20;;;;;;;14.85;9.20;;;;;;;9.67;100.00;99014.09;1749460;80;20903;-74
2022/09/26 01:25:01;;;;;;;11.05;7.22;;;;;;;9.66;100.00;99030.30;1682816;82;21184;-72
2022/09/26 01:27:51;;;;;;;13.83;7.10;;;;;;;9.59;100.00;99027.48;1678855;82;21442;-73
2022/09/26 01:30:25;;;;;;;11.95;6.72;;;;;;;9.57;100.00;99036.58;1746382;81;21073;-73
2022/09/26 01:33:10;;;;;;;9.33;7.20;;;;;;;9.57;100.00;99036.58;1743932;82;21438;-73
2022/09/26 01:36:00;;;;;;;12.55;6.75;;;;;;;9.57;100.00;99035.21;1714294;81;21011;-74
2022/09/26 01:39:12;;;;;;;8.88;6.67;;;;;;;9.59;100.00;99022.56;1723908;81;20990;-73
2022/09/26 01:42:18;;;;;;;10.90;6.35;;;;;;;9.58;100.00;99030.53;1740565;80;21002;-73
2022/09/26 01:45:05;;;;;;;7.65;5.87;;;;;;;9.56;100.00;99025.94;1691348;82;20998;-73
2022/09/26 01:47:48;;;;;;;9.10;6.85;;;;;;;9.55;100.00;99023.77;1744715;80;21053;-72
2022/09/26 01:50:26;;;;;;;8.50;6.20;;;;;;;9.57;100.00;99032.47;1759556;80;21423;-74
2022/09/26 01:53:11;;;;;;;7.65;5.78;;;;;;;9.56;100.00;99036.91;1764926;80;22068;-73
2022/09/26 01:55:47;;;;;;;9.68;6.25;;;;;;;9.55;100.00;99033.92;1710382;80;20962;-73
2022/09/26 01:58:30;;;;;;;10.95;6.75;;;;;;;9.54;100.00;99033.67;1744871;80;20964;-73
2022/09/26 02:01:00;;;;;;;10.40;6.08;;;;;;;9.53;100.00;99033.44;1756072;80;21046;-72
2022/09/26 02:03:45;;;;;;;13.10;6.72;;;;;;;9.51;100.00;99036.50;1698975;81;21116;-73
2022/09/26 02:06:28;;;;;;;9.13;6.67;;;;;;;9.50;100.00;99031.34;1722519;82;20964;-73
2022/09/26 02:09:05;;;;;;;10.63;6.70;;;;;;;9.48;100.00;99025.37;1702853;83;20986;-74
2022/09/26 02:11:36;;;;;;;10.70;7.03;;;;;;;9.46;100.00;99018.03;1729566;81;22300;-74
2022/09/26 02:14:11;;;;;;;9.85;6.90;;;;;;;9.44;100.00;99017.55;1710538;82;20939;-73
2022/09/26 02:16:54;;;;;;;11.08;7.50;;;;;;;9.43;100.00;99018.67;1722342;81;20935;-74
2022/09/26 02:19:48;;;;;;;11.88;7.42;;;;;;;9.42;100.00;99012.95;1693636;81;21107;-74
2022/09/26 02:22:19;;;;;;;11.93;7.70;;;;;;;9.41;100.00;99006.66;1695675;81;21002;-74
2022/09/26 02:24:48;;;;;;;12.70;6.55;;;;;;;9.39;100.00;99012.22;1726912;81;20919;-74
2022/09/26 02:27:25;;;;;;;11.75;6.83;;;;;;;9.37;100.00;99011.73;1718149;82;20979;-75
2022/09/26 02:29:51;;;;;;;9.90;7.25;;;;;;;9.37;100.00;99012.55;1711040;82;21063;-75
2022/09/26 02:32:22;;;;;;;13.13;8.30;;;;;;;9.37;100.00;99005.69;1721939;82;21087;-75
2022/09/26 02:34:51;;;;;;;14.25;7.40;;;;;;;9.38;100.00;99002.39;1718176;82;21063;-74
2022/09/26 02:37:21;;;;;;;17.02;7.42;;;;;;;9.35;100.00;98995.63;1695260;82;20911;-76
2022/09/26 02:39:54;;;;;;;11.40;8.00;;;;;;;9.33;100.00;99006.66;1735100;82;21566;-75
2022/09/26 02:42:45;;;;;;;9.90;7.45;;;;;;;9.32;100.00;99011.89;1722671;82;21013;-75
2022/09/26 02:45:24;;;;;;;9.55;7.10;;;;;;;9.31;100.00;99011.08;1721787;81;21170;-74
2022/09/26 02:48:23;;;;;;;15.40;7.25;;;;;;;9.32;100.00;98999.56;1693849;82;20912;-74
2022/09/26 02:51:19;;;;;;;10.05;7.78;;;;;;;9.30;100.00;98985.38;1711850;82;20964;-80
2022/09/26 02:54:24;;;;;;;12.47;7.87;;;;;;;9.27;100.00;98975.88;1714976;81;21042;-89
2022/09/26 02:57:30;;;;;;;8.25;6.62;;;;;;;9.26;100.00;98991.50;1723195;82;21057;-79
2022/09/26 03:00:08;;;;;;;12.25;7.50;;;;;;;9.28;100.00;98983.77;1723350;82;21956;-82
2022/09/26 03:02:43;;;;;;;9.28;7.37;;;;;;;9.28;100.00;98985.14;1718788;82;21037;-77
2022/09/26 03:05:16;;;;;;;10.70;7.50;;;;;;;9.28;100.00;98991.98;1710976;82;21031;-77
2022/09/26 03:08:07;;;;;;;11.63;8.53;;;;;;;9.26;100.00;99001.09;1722468;82;21042;-77
2022/09/26 03:10:39;;;;;;;11.60;7.33;;;;;;;9.24;100.00;98996.49;1724229;82;20946;-76
2022/09/26 03:13:10;;;;;;;10.90;8.30;;;;;;;9.24;100.00;98995.72;1731002;82;21699;-80
2022/09/26 03:15:40;;;;;;;15.93;9.38;;;;;;;9.23;100.00;98992.17;1716179;81;21479;-77
2022/09/26 03:18:12;;;;;;;11.08;7.92;;;;;;;9.22;100.00;98991.93;1717380;81;20984;-74
2022/09/26 03:20:46;;;;;;;10.43;7.55;;;;;;;9.23;100.00;98984.52;1731927;81;20985;-76
2022/09/26 03:23:19;;;;;;;10.30;7.70;;;;;;;9.23;100.00;98977.11;1752843;80;21651;-72
2022/09/26 03:26:03;;;;;;;;;;;;;;;9.24;100.00;98973.81;1754513;80;21206;-77
2022/09/26 03:28:30;;;;;;;9.63;7.70;;;;;;;9.24;100.00;98971.84;1728825;80;20120;-74
2022/09/26 03:31:00;;;;;;;10.98;7.87;;;;;;;9.25;100.00;98973.45;1752875;80;20994;-83
2022/09/26 03:33:31;;;;;;;;;;;;;;;9.23;100.00;98966.72;1751158;81;20906;-75
2022/09/26 03:36:04;;;;;;;13.95;8.08;;;;;;;9.22;100.00;98978.23;1748629;80;20206;-79
2022/09/26 03:38:34;;;;;;;11.40;8.38;;;;;;;9.21;100.00;98979.36;1747542;80;21147;-85
2022/09/26 03:41:09;;;;;;;12.80;9.03;;;;;;;9.23;100.00;98988.06;1746622;81;20913;-73
2022/09/26 03:43:42;;;;;;;12.90;8.48;;;;;;;9.26;100.00;98969.59;1736059;80;21085;-81
2022/09/26 03:46:14;;;;;;;14.03;8.13;;;;;;;9.28;100.00;98966.53;1724750;81;20903;-79
2022/09/26 03:48:45;;;;;;;12.03;8.78;;;;;;;9.27;100.00;98965.72;1749796;80;20887;-89
2022/09/26 03:51:12;;;;;;;10.05;8.05;;;;;;;9.23;100.00;98970.26;1704635;83;21541;-77
2022/09/26 03:53:45;;;;;;;12.28;8.15;;;;;;;9.21;100.00;98968.41;1745026;82;20975;-81
2022/09/26 03:56:19;;;;;;;11.20;8.80;;;;;;;9.18;100.00;98969.05;1701983;83;20910;-81
2022/09/26 03:58:50;;;;;;;10.28;8.33;;;;;;;9.18;100.00;98973.16;1689559;84;20950;-78
2022/09/26 04:01:20;;;;;;;12.37;8.30;;;;;;;9.19;100.00;98983.55;1701945;83;20926;-82
2022/09/26 04:03:48;;;;;;;11.97;8.93;;;;;;;9.18;100.00;98974.52;1701870;83;20963;-81
2022/09/26 04:06:22;;;;;;;9.85;8.25;;;;;;;9.18;100.00;98976.45;1701243;84;20899;-87
2022/09/26 04:08:50;;;;;;;;;;;;;;;9.15;100.00;98974.36;1704832;84;20947;-82
2022/09/26 04:11:21;;;;;;;15.53;8.05;;;;;;;9.13;100.00;98969.20;1702406;83;20126;-78
2022/09/26 04:13:48;;;;;;;14.87;8.70;;;;;;;9.12;100.00;98970.33;1701889;84;21472;-80
2022/09/26 04:16:19;;;;;;;11.50;8.30;;;;;;;9.14;100.00;98972.74;1701962;83;21484;-77
2022/09/26 04:18:52;;;;;;;19.07;8.00;;;;;;;9.14;100.00;98979.03;1701807;83;20940;-79
2022/09/26 04:21:25;;;;;;;11.65;8.45;;;;;;;9.13;100.00;98967.83;1702174;83;20921;-80
2022/09/26 04:23:57;;;;;;;14.70;9.03;;;;;;;9.14;100.00;98968.08;1680734;84;21004;-79
2022/09/26 04:26:30;;;;;;;11.38;8.55;;;;;;;9.16;100.00;98965.02;1680134;84;20913;-78
2022/09/26 04:29:02;;;;;;;13.18;8.45;;;;;;;9.15;100.00;98961.47;1702339;83;21146;-77
2022/09/26 04:31:40;;;;;;;14.93;9.03;;;;;;;9.14;100.00;98955.75;1691514;83;21039;-83
2022/09/26 04:34:10;;;;;;;10.10;8.08;;;;;;;9.13;100.00;98940.45;1702304;83;20901;-77
2022/09/26 04:36:44;;;;;;;11.78;7.90;;;;;;;9.13;100.00;98945.12;1702314;84;20944;-74
2022/09/26 04:39:15;;;;;;;10.72;8.63;;;;;;;9.16;100.00;98937.63;1702211;84;21067;-75
2022/09/26 04:41:51;;;;;;;12.65;7.90;;;;;;;9.17;100.00;98937.88;1664657;84;20988;-76
2022/09/26 04:44:20;;;;;;;14.45;9.05;;;;;;;9.20;100.00;98930.39;1694257;84;20965;-76
2022/09/26 04:46:55;;;;;;;10.08;7.78;;;;;;;9.21;100.00;98925.15;1737911;82;20936;-76
2022/09/26 04:49:28;;;;;;;11.53;8.25;;;;;;;9.22;100.00;98923.46;1701624;82;20946;-76
2022/09/26 04:51:57;;;;;;;10.13;7.87;;;;;;;9.23;100.00;98924.27;1745450;82;20979;-89
2022/09/26 04:54:25;;;;;;;13.38;8.30;;;;;;;9.27;100.00;98923.27;1745287;80;21148;-89
2022/09/26 04:56:52;;;;;;;10.15;8.35;;;;;;;9.30;100.00;98926.49;1744022;81;21534;-89
2022/09/26 04:59:20;;;;;;;10.82;7.70;;;;;;;9.32;100.00;98930.52;1714041;82;20928;-87
2022/09/26 05:01:55;;;;;;;15.90;8.55;;;;;;;9.36;100.00;98928.75;1706160;82;20994;-87
2022/09/26 05:04:27;;;;;;;11.88;8.83;;;;;;;9.38;100.00;98928.43;1724226;81;20899;-84
2022/09/26 05:06:58;;;;;;;12.98;8.08;;;;;;;9.40;100.00;98930.28;1754796;81;21104;-86
2022/09/26 05:09:26;;;;;;;15.90;8.05;;;;;;;9.40;100.00;98926.98;1760650;80;21077;-81
2022/09/26 05:11:56;;;;;;;12.20;8.18;;;;;;;9.41;100.00;98933.27;1752863;80;20938;-85
2022/09/26 05:14:24;;;;;;;13.45;7.95;;;;;;;9.42;100.00;98937.05;1759482;80;20911;-79
2022/09/26 05:16:55;;;;;;;10.03;7.72;;;;;;;9.43;100.00;98932.38;1751167;80;20998;-76
2022/09/26 05:19:22;;;;;;;11.55;8.68;;;;;;;9.44;100.00;98925.20;1690643;82;21756;-75
2022/09/26 05:21:56;;;;;;;12.40;8.83;;;;;;;9.42;100.00;98917.88;1674892;84;20935;-80
2022/09/26 05:27:10;;;;;;;12.68;8.00;;;;;;;9.41;100.00;98926.42;1674696;84;20974;-78
2022/09/26 05:29:37;;;;;;;16.50;7.65;;;;;;;9.42;100.00;98932.14;1696738;82;20941;-78
2022/09/26 05:32:14;;;;;;;9.90;7.80;;;;;;;9.47;100.00;98929.23;1691044;83;21180;-71
2022/09/26 05:34:47;;;;;;;11.68;8.33;;;;;;;9.50;100.00;98929.95;1744284;80;21533;-72
2022/09/26 05:37:19;;;;;;;11.55;8.18;;;;;;;9.52;100.00;98929.07;1745425;80;21019;-74
2022/09/26 05:42:39;;;;;;;11.88;7.85;;;;;;;9.59;100.00;98936.23;1757864;80;20144;-68
2022/09/26 05:45:09;;;;;;;13.90;8.15;;;;;;;9.61;100.00;98936.72;1747614;80;21212;-71
2022/09/26 05:47:40;;;;;;;10.65;7.72;;;;;;;9.62;100.00;98934.22;1722088;81;21054;-74
2022/09/26 05:50:12;;;;;;;10.80;8.25;;;;;;;9.64;100.00;98938.81;1750553;79;20922;-84
2022/09/26 05:52:36;;;;;;;14.43;9.10;;;;;;;9.67;100.00;98929.95;1728008;80;21109;-83
2022/09/26 05:55:06;;;;;;;14.87;10.32;;;;;;;9.69;100.00;98930.99;1741820;80;20951;-76
2022/09/26 05:57:37;;;;;;;13.30;10.38;;;;;;;9.69;100.00;98930.99;1734935;80;21891;-78
2022/09/26 06:00:06;;;;;;;16.52;11.22;;;;;;;9.70;100.00;98928.49;1753471;80;21116;-77
2022/09/26 06:02:45;;;;;;;21.68;13.38;;;;;;;9.71;100.00;98929.53;1753675;80;20987;-74
2022/09/26 06:05:22;;;;;;;27.05;15.93;;;;;;;9.75;100.00;98931.06;1752113;80;20971;-76
2022/09/26 06:08:10;;;;;;;33.35;21.52;;;;;;;9.77;100.00;98933.72;1756708;80;21506;-84
2022/09/26 06:10:46;;;;;;;49.55;30.60;;;;;;;9.79;100.00;98935.57;1758901;80;21154;-73
2022/09/26 06:13:15;;;;;;;34.25;23.77;;;;;;;9.82;100.00;98932.15;1691935;83;20899;-75
2022/09/26 06:15:48;;;;;;;42.27;28.25;;;;;;;9.86;100.00;98942.70;1720558;81;21015;-90
2022/09/26 06:18:16;;;;;;;40.03;26.87;;;;;;;9.92;100.00;98942.78;1720813;81;20963;-84
2022/09/26 06:20:42;;;;;;;54.20;35.10;;;;;;;9.98;100.00;98941.23;1714452;82;21540;-82
2022/09/26 06:23:11;;;;;;;81.30;35.10;;;;;;;10.15;100.00;98943.94;1734828;80;21918;-84
2022/09/26 06:25:41;;;;;;;250.93;36.90;;;;;;;10.27;100.00;98944.66;1708183;81;20953;-81
2022/09/26 06:28:08;;;;;;;35.30;24.07;;;;;;;10.35;100.00;98936.39;1713313;82;21582;-77
2022/09/26 06:30:39;;;;;;;42.93;23.60;;;;;;;10.40;100.00;98940.30;1719441;81;21014;-75
2022/09/26 06:33:13;;;;;;;50.08;25.88;;;;;;;10.46;100.00;98944.47;1715570;82;21530;-82
2022/09/26 06:35:43;;;;;;;34.18;21.60;;;;;;;10.57;100.00;98944.91;1737224;80;21121;-78
2022/09/26 06:38:19;;;;;;;37.80;20.08;;;;;;;10.65;100.00;98949.56;1750741;80;20997;-77
2022/09/26 06:40:51;;;;;;;30.08;18.20;;;;;;;10.72;100.00;98958.65;1734794;80;21094;-73
2022/09/26 06:43:24;;;;;;;28.12;17.05;;;;;;;10.92;100.00;98948.28;1759969;80;20919;-80
2022/09/26 06:45:55;;;;;;;;;;;;;;;11.06;100.00;98944.70;1742984;80;21614;-81
2022/09/26 06:48:27;;;;;;;49.73;23.95;;;;;;;11.13;100.00;98936.73;1753798;80;21265;-73
2022/09/26 06:51:01;;;;;;;53.63;27.20;;;;;;;11.20;100.00;98930.13;1744041;80;21418;-74
2022/09/26 06:53:33;;;;;;;32.03;22.13;;;;;;;11.28;100.00;98939.45;1727626;81;20997;-85
2022/09/26 06:56:03;;;;;;;29.60;20.82;;;;;;;11.39;100.00;98931.61;1754498;80;21038;-86
2022/09/26 06:58:31;;;;;;;23.20;18.23;;;;;;;11.52;100.00;98932.72;1751739;80;20963;-80
2022/09/26 07:01:01;;;;;;;17.35;13.18;;;;;;;11.62;100.00;98933.41;1696128;80;20999;-87
2022/09/26 07:03:44;;;;;;;17.60;12.28;;;;;;;11.73;100.00;98928.53;1744189;80;21002;-85
2022/09/26 07:06:25;;;;;;;17.67;10.70;;;;;;;11.80;100.00;98926.07;1718541;81;20983;-86
2022/09/26 07:08:55;;;;;;;12.90;9.33;;;;;;;11.90;100.00;98934.47;1724009;81;21785;-83
2022/09/26 07:11:26;;;;;;;25.50;11.38;;;;;;;11.96;100.00;98932.31;1714422;82;21558;-84
2022/09/26 07:13:53;;;;;;;19.48;9.60;;;;;;;12.06;100.00;98934.63;1669196;84;21902;-73
2022/09/26 07:16:25;;;;;;;18.32;9.10;;;;;;;12.16;100.00;98938.30;1718511;81;21013;-83
2022/09/26 07:19:03;;;;;;;18.82;8.93;;;;;;;12.28;100.00;98943.02;1723633;81;20993;-76
2022/09/26 07:21:55;;;;;;;;;;;;;;;12.34;100.00;98937.53;1710851;81;21052;-77
2022/09/26 07:24:30;;;;;;;11.25;7.53;;;;;;;12.39;100.00;98940.06;1743657;80;20491;-75
2022/09/26 07:27:08;;;;;;;15.23;7.60;;;;;;;12.40;100.00;98937.54;1760483;80;21415;-75
2022/09/26 07:29:33;;;;;;;15.53;7.28;;;;;;;12.36;100.00;98936.05;1743695;80;20832;-79
2022/09/26 07:32:04;;;;;;;11.68;8.03;;;;;;;12.37;100.00;98936.27;1702467;81;20954;-78
2022/09/26 07:34:43;;;;;;;13.58;8.00;;;;;;;12.37;100.00;98939.59;1749472;80;20948;-81
2022/09/26 07:37:12;;;;;;;12.15;7.12;;;;;;;12.39;100.00;98935.93;1747114;80;21441;-82
2022/09/26 07:39:42;;;;;;;10.50;6.42;;;;;;;12.43;100.00;98942.36;1724657;81;21010;-77
2022/09/26 07:42:11;;;;;;;13.10;7.42;;;;;;;12.48;100.00;98932.50;1749439;80;20978;-78
2022/09/26 07:44:40;;;;;;;11.22;6.53;;;;;;;12.58;100.00;98940.88;1717203;82;20910;-76
2022/09/26 07:50:15;;;;;;;11.40;7.65;;;;;;;12.83;100.00;98943.84;1713741;82;21100;-80
2022/09/26 07:52:51;;;;;;;9.68;7.15;;;;;;;12.95;100.00;98943.84;1720853;81;21148;-77
2022/09/26 07:55:28;;;;;;;12.58;8.30;;;;;;;13.02;100.00;98944.06;1744273;81;21521;-79
2022/09/26 07:58:13;;;;;;;8.73;5.80;;;;;;;13.11;98.44;98935.67;1747459;80;20985;-79
2022/09/26 08:01:04;;;;;;;16.95;7.15;;;;;;;13.24;97.24;98925.45;1750890;80;21085;-81
2022/09/26 08:03:57;;;;;;;12.10;6.58;;;;;;;13.46;96.28;98906.41;1757060;80;20936;-76
2022/09/26 08:06:31;;;;;;;16.70;8.73;;;;;;;13.70;94.69;98893.10;1757672;80;21482;-77
2022/09/26 08:09:03;;;;;;;13.18;8.40;;;;;;;13.92;93.13;98895.03;1723012;81;21030;-75
2022/09/26 08:11:54;;;;;;;9.25;6.80;;;;;;;14.06;92.43;98891.28;1749416;80;21458;-74
2022/09/26 08:14:24;;;;;;;9.60;6.00;;;;;;;14.30;90.51;98895.84;1738781;81;21085;-78
2022/09/26 08:17:00;;;;;;;10.93;7.00;;;;;;;14.54;88.76;98893.70;1742208;81;20957;-75
2022/09/26 08:19:27;;;;;;;13.88;8.20;;;;;;;14.76;87.11;98898.36;1716375;82;21494;-75
2022/09/26 08:21:58;;;;;;;8.93;6.90;;;;;;;14.88;83.96;98899.62;1721371;82;21017;-75
2022/09/26 08:24:26;;;;;;;9.00;6.42;;;;;;;14.91;84.96;98892.00;1701457;82;21029;-83
2022/09/26 08:27:02;;;;;;;11.10;7.45;;;;;;;15.00;82.44;98891.22;1700122;82;21487;-77
2022/09/26 08:29:47;;;;;;;13.55;6.20;;;;;;;15.09;82.17;98886.27;1695996;82;21030;-77
2022/09/26 08:32:18;;;;;;;12.07;6.87;;;;;;;15.29;80.95;98886.28;1727034;82;21245;-81
2022/09/26 08:34:48;;;;;;;;;;;;;;;15.52;81.66;98883.02;1734661;80;20916;-80
2022/09/26 08:37:16;;;;;;;7.90;5.73;;;;;;;15.80;79.56;98875.28;1694882;82;20161;-80
2022/09/26 08:40:00;;;;;;;7.25;4.78;;;;;;;15.98;77.02;98878.97;1654182;86;21519;-81
2022/09/26 08:43:09;;;;;;;6.92;4.67;;;;;;;16.23;76.03;98877.42;1680285;82;21055;-80
2022/09/26 08:49:03;;;;;;;7.47;4.58;;;;;;;17.12;71.25;98879.62;1711480;82;21058;-80
2022/09/26 08:51:47;;;;;;;6.10;3.98;;;;;;;17.33;70.38;98878.31;1712324;83;21598;-88
2022/09/26 08:54:37;;;;;;;6.47;4.80;;;;;;;17.43;66.96;98881.78;1705239;82;20955;-85
2022/09/26 08:57:25;;;;;;;6.72;4.03;;;;;;;17.57;67.72;98886.12;1703413;82;20943;-78
2022/09/26 08:59:55;;;;;;;13.18;8.68;;;;;;;17.83;66.12;98888.63;1755420;80;21102;-88
2022/09/26 09:02:29;;;;;;;7.08;4.72;;;;;;;18.05;67.20;98883.48;1754103;80;21009;-82
2022/09/26 09:05:03;;;;;;;8.18;5.12;;;;;;;18.17;62.99;98884.59;1748864;80;21537;-83
2022/09/26 09:07:34;;;;;;;21.37;16.02;;;;;;;18.07;64.68;98880.53;1750703;80;21015;-81
2022/09/26 09:10:07;;;;;;;34.05;27.30;;;;;;;17.94;62.96;98885.35;1758197;80;21707;-84
2022/09/26 09:13:00;;;;;;;15.53;11.60;;;;;;;17.70;63.36;98881.95;1707718;80;21279;-85
2022/09/26 09:15:52;;;;;;;9.25;4.90;;;;;;;17.49;63.50;98887.20;1729972;80;20929;-88
2022/09/26 09:18:35;;;;;;;8.23;5.83;;;;;;;17.27;65.67;98884.77;1721886;81;20998;-78
2022/09/26 09:21:45;;;;;;;12.90;6.10;;;;;;;17.11;66.40;98886.34;1742164;80;20937;-84
2022/09/26 09:24:38;;;;;;;8.85;5.28;;;;;;;16.95;68.20;98884.91;1752820;80;21031;-80
2022/09/26 09:27:53;;;;;;;9.30;5.62;;;;;;;16.82;68.99;98884.33;1749261;80;21010;-79
2022/09/26 09:30:42;;;;;;;8.25;5.10;;;;;;;16.65;69.25;98891.80;1739985;80;21679;-82
2022/09/26 09:33:28;;;;;;;7.75;4.80;;;;;;;16.50;70.58;98887.38;1714771;81;21026;-85
2022/09/26 09:36:10;;;;;;;9.68;4.67;;;;;;;16.38;70.58;98877.88;1719616;81;20971;-81
2022/09/26 09:38:47;;;;;;;8.50;5.25;;;;;;;16.29;71.03;98870.98;1750738;81;21042;-80
2022/09/26 09:41:48;;;;;;;11.85;6.03;;;;;;;16.19;70.53;98883.48;1691062;82;21176;-79
2022/09/26 09:44:31;;;;;;;8.38;4.58;;;;;;;16.15;71.71;98882.65;1760360;80;20852;-83
2022/09/26 09:46:58;;;;;;;15.50;7.25;;;;;;;16.14;70.95;98883.81;1750134;80;20860;-86
2022/09/26 09:49:25;;;;;;;102.05;57.62;;;;;;;16.15;71.77;98882.06;1731867;81;20954;-81
2022/09/26 09:52:20;;;;;;;33.15;23.10;;;;;;;16.19;71.52;98877.94;1753458;81;21048;-72
2022/09/26 09:55:18;;;;;;;12.82;8.95;;;;;;;16.18;70.54;98879.91;1756298;80;21438;-79
2022/09/26 09:58:16;;;;;;;11.20;6.22;;;;;;;16.24;72.91;98868.53;1748064;81;20990;-72
2022/09/26 10:00:50;;;;;;;11.45;5.78;;;;;;;16.33;72.23;98865.73;1754759;80;21066;-78
2022/09/26 10:03:26;;;;;;;6.95;4.53;;;;;;;16.37;70.99;98865.20;1751216;81;21031;-84
2022/09/26 10:05:57;;;;;;;6.80;3.83;;;;;;;16.41;71.60;98859.13;1748115;80;21588;-86
2022/09/26 10:08:40;;;;;;;9.28;4.58;;;;;;;16.39;71.18;98854.55;1748556;80;21482;-81
2022/09/26 10:11:30;;;;;;;8.30;4.55;;;;;;;16.41;71.27;98859.13;1749999;80;20895;-78
2022/09/26 10:14:04;;;;;;;8.98;4.78;;;;;;;16.37;70.43;98844.42;1748325;80;20911;-76
2022/09/26 10:17:12;;;;;;;9.60;4.87;;;;;;;16.39;71.88;98840.70;1728246;80;20970;-77
2022/09/26 10:19:58;;;;;;;6.10;4.42;;;;;;;16.44;71.81;98847.90;1727824;82;20927;-73
2022/09/26 10:22:36;;;;;;;7.10;4.37;;;;;;;16.48;71.64;98837.09;1726687;82;21123;-77
2022/09/26 10:25:19;;;;;;;10.23;4.83;;;;;;;16.47;70.71;98835.48;1695417;82;21513;-77
2022/09/26 10:27:50;;;;;;;7.62;4.72;;;;;;;16.45;71.38;98828.72;1729682;82;20942;-77
2022/09/26 10:30:24;;;;;;;11.68;4.25;;;;;;;16.41;70.16;98830.63;1719814;82;20922;-77
2022/09/26 10:32:55;;;;;;;6.90;4.03;;;;;;;16.36;69.64;98828.98;1723600;82;20903;-80
2022/09/26 10:35:42;;;;;;;39.85;22.98;;;;;;;16.32;70.71;98830.89;1708690;81;21163;-79
2022/09/26 10:38:28;;;;;;;52.98;34.10;;;;;;;16.32;70.83;98831.48;1713310;82;20983;-81
2022/09/26 10:41:09;;;;;;;10.18;6.60;;;;;;;16.34;69.30;98827.16;1725713;81;20923;-81
2022/09/26 10:43:39;;;;;;;10.93;5.12;;;;;;;16.32;68.57;98830.89;1673762;83;20948;-80
2022/09/26 10:46:18;;;;;;;8.55;4.20;;;;;;;16.29;68.42;98825.30;1697410;81;20979;-80
2022/09/26 10:48:54;;;;;;;10.85;5.55;;;;;;;16.25;68.28;98827.20;1722294;82;21134;-79
2022/09/26 10:51:50;;;;;;;9.78;4.78;;;;;;;16.22;69.48;98819.05;1734956;81;21418;-79
2022/09/26 10:54:22;;;;;;;13.80;4.65;;;;;;;16.22;69.62;98814.90;1733883;81;20942;-79
2022/09/26 10:56:56;;;;;;;5.55;3.75;;;;;;;16.23;70.05;98804.63;1725635;83;21447;-80
2022/09/26 10:59:26;;;;;;;7.97;4.20;;;;;;;16.28;69.24;98813.41;1714595;82;20903;-80
2022/09/26 11:01:58;;;;;;;5.17;3.70;;;;;;;16.30;69.49;98808.30;1726258;82;21108;-80
2022/09/26 11:07:41;;;;;;;8.88;5.55;;;;;;;16.33;72.28;98803.41;1705583;83;20987;-77
2022/09/26 11:10:16;;;;;;;11.30;5.67;;;;;;;16.37;70.58;98799.31;1710454;83;37672;-77
2022/09/26 11:12:58;;;;;;;6.25;4.50;;;;;;;16.35;70.89;98797.50;1703250;83;20916;-78
2022/09/26 11:15:27;;;;;;;6.75;4.30;;;;;;;16.33;71.24;98798.45;1708779;83;21791;-78
2022/09/26 11:17:54;;;;;;;6.33;3.83;;;;;;;16.30;70.56;98803.35;1706104;82;20940;-77
2022/09/26 11:20:43;;;;;;;5.35;4.15;;;;;;;16.32;72.17;98805.97;1707910;82;20849;-80
2022/09/26 11:23:21;;;;;;;8.13;4.33;;;;;;;16.36;70.56;98812.36;1722147;82;20883;-80
2022/09/26 11:26:14;;;;;;;8.30;4.65;;;;;;;16.38;70.24;98812.78;1715712;82;20927;-79
2022/09/26 11:28:44;;;;;;;;;;;;;;;16.37;70.35;98812.57;1735113;81;21296;-81
2022/09/26 11:31:25;;;;;;;6.95;4.70;;;;;;;16.33;70.65;98802.02;1727806;82;20120;-81
2022/09/26 11:33:57;;;;;;;8.45;4.37;;;;;;;16.27;71.51;98804.89;1726593;81;20903;-82
2022/09/26 11:36:47;;;;;;;8.53;3.98;;;;;;;16.23;71.59;98802.66;1721045;82;21577;-80
2022/09/26 11:39:57;;;;;;;5.78;4.50;;;;;;;16.21;71.69;98800.04;1720761;82;20990;-81
2022/09/26 11:42:37;;;;;;;8.00;4.03;;;;;;;16.21;72.25;98802.22;1726271;82;21095;-81
2022/09/26 11:45:10;;;;;;;6.33;4.10;;;;;;;;;;1714806;81;20967;-81
2022/09/26 11:48:31;;;;;;;9.03;4.40;;;;;;;16.28;71.97;98798.77;1703283;83;21486;-85
2022/09/26 11:51:39;;;;;;;6.62;3.95;;;;;;;16.31;71.48;98796.64;1658877;85;20927;-83
2022/09/26 11:54:20;;;;;;;11.38;4.22;;;;;;;16.37;70.83;98794.56;1719961;82;20819;-83
2022/09/26 11:56:55;;;;;;;5.25;3.92;;;;;;;16.39;70.43;98796.38;1675128;84;21251;-81
2022/09/26 12:00:06;;;;;;;8.88;3.92;;;;;;;16.36;70.29;98793.55;1679155;84;22485;-84
2022/09/26 12:03:15;;;;;;;6.20;4.50;;;;;;;16.33;70.92;98792.33;1690069;84;20904;-84
2022/09/26 12:06:00;;;;;;;6.40;4.10;;;;;;;16.35;71.11;98784.45;1675972;84;20912;-84
2022/09/26 12:08:50;;;;;;;5.05;3.67;;;;;;;16.38;72.31;98785.09;1722353;82;20927;-83
2022/09/26 12:11:44;;;;;;;5.95;3.52;;;;;;;16.50;73.26;98782.70;1726051;81;21148;-82
2022/09/26 12:14:24;;;;;;;4.92;3.50;;;;;;;16.68;70.96;98776.05;1709919;82;20992;-84
2022/09/26 12:17:00;;;;;;;5.55;3.00;;;;;;;16.92;69.97;98777.54;1742082;81;20895;-83
2022/09/26 12:19:54;;;;;;;5.85;3.83;;;;;;;17.14;68.73;98777.44;1714157;83;21491;-83
2022/09/26 12:22:35;;;;;;;5.58;3.87;;;;;;;17.42;66.94;98760.29;1712857;82;20959;-85
2022/09/26 12:25:30;;;;;;;5.17;2.62;;;;;;;17.75;66.16;98762.24;1731173;81;21124;-83
2022/09/26 12:28:35;;;;;;;5.12;4.35;;;;;;;18.04;64.75;98757.71;1725625;82;20935;-85
2022/09/26 12:31:19;;;;;;;6.20;3.83;;;;;;;18.34;64.07;98752.58;1681344;83;20889;-83